sensor_id;sensor_type;location;lat;lon;timestamp;P1;durP1;ratioP1;P2;durP2;ratioP2
60478;SDS011;46321;48.398;11.754;2022-09-17T00:01:41;5.38;;;3.97;;
60478;SDS011;46321;48.398;11.754;2022-09-17T00:04:06;6.47;;;3.70;;
60478;SDS011;46321;48.398;11.754;2022-09-17T00:06:34;10.30;;;3.92;;
60478;SDS011;46321;48.398;11.754;2022-09-17T00:09:00;7.88;;;4.43;;
60478;SDS011;46321;48.398;11.754;2022-09-17T00:11:27;9.88;;;4.32;;
60478;SDS011;46321;48.398;11.754;2022-09-17T00:13:54;5.43;;;3.83;;
60478;SDS011;46321;48.398;11.754;2022-09-17T00:16:32;8.00;;;4.22;;
60478;SDS011;46321;48.398;11.754;2022-09-17T00:19:03;6.32;;;4.00;;
60478;SDS011;46321;48.398;11.754;2022-09-17T00:21:30;7.22;;;3.90;;
60478;SDS011;46321;48.398;11.754;2022-09-17T00:23:57;6.80;;;4.53;;
60478;SDS011;46321;48.398;11.754;2022-09-17T00:26:26;7.15;;;4.50;;
60478;SDS011;46321;48.398;11.754;2022-09-17T00:28:53;5.63;;;3.92;;
60478;SDS011;46321;48.398;11.754;2022-09-17T00:31:20;6.53;;;4.45;;
60478;SDS011;46321;48.398;11.754;2022-09-17T00:33:46;6.70;;;3.95;;
60478;SDS011;46321;48.398;11.754;2022-09-17T00:36:12;8.18;;;4.18;;
60478;SDS011;46321;48.398;11.754;2022-09-17T00:38:37;5.32;;;3.17;;
60478;SDS011;46321;48.398;11.754;2022-09-17T00:41:03;4.13;;;2.47;;
60478;SDS011;46321;48.398;11.754;2022-09-17T00:43:40;2.83;;;2.30;;
60478;SDS011;46321;48.398;11.754;2022-09-17T00:46:14;4.65;;;2.45;;
60478;SDS011;46321;48.398;11.754;2022-09-17T00:48:57;3.10;;;1.80;;
60478;SDS011;46321;48.398;11.754;2022-09-17T00:51:27;2.40;;;1.80;;
60478;SDS011;46321;48.398;11.754;2022-09-17T00:53:58;3.10;;;1.90;;
60478;SDS011;46321;48.398;11.754;2022-09-17T00:56:26;2.38;;;1.60;;
60478;SDS011;46321;48.398;11.754;2022-09-17T00:58:55;1.90;;;1.40;;
60478;SDS011;46321;48.398;11.754;2022-09-17T01:01:22;2.17;;;1.50;;
60478;SDS011;46321;48.398;11.754;2022-09-17T01:03:47;2.50;;;1.60;;
60478;SDS011;46321;48.398;11.754;2022-09-17T01:06:19;1.90;;;1.40;;
60478;SDS011;46321;48.398;11.754;2022-09-17T01:20:15;2.72;;;1.25;;
60478;SDS011;46321;48.398;11.754;2022-09-17T01:26:04;1.77;;;1.10;;
60478;SDS011;46321;48.398;11.754;2022-09-17T01:28:52;2.20;;;1.30;;
60478;SDS011;46321;48.398;11.754;2022-09-17T01:31:43;2.58;;;1.23;;
60478;SDS011;46321;48.398;11.754;2022-09-17T01:34:22;1.70;;;1.30;;
60478;SDS011;46321;48.398;11.754;2022-09-17T01:36:58;2.08;;;1.33;;
60478;SDS011;46321;48.398;11.754;2022-09-17T01:40:00;2.20;;;1.30;;
60478;SDS011;46321;48.398;11.754;2022-09-17T01:42:35;2.00;;;1.40;;
60478;SDS011;46321;48.398;11.754;2022-09-17T01:47:51;1.58;;;1.10;;
60478;SDS011;46321;48.398;11.754;2022-09-17T01:50:24;2.03;;;1.20;;
60478;SDS011;46321;48.398;11.754;2022-09-17T01:52:54;2.97;;;1.20;;
60478;SDS011;46321;48.398;11.754;2022-09-17T01:55:22;1.98;;;1.40;;
60478;SDS011;46321;48.398;11.754;2022-09-17T01:57:53;1.90;;;1.25;;
60478;SDS011;46321;48.398;11.754;2022-09-17T02:00:22;1.90;;;1.30;;
60478;SDS011;46321;48.398;11.754;2022-09-17T02:02:50;2.40;;;1.00;;
60478;SDS011;46321;48.398;11.754;2022-09-17T02:08:20;4.43;;;1.52;;
60478;SDS011;46321;48.398;11.754;2022-09-17T02:11:30;1.60;;;1.17;;
60478;SDS011;46321;48.398;11.754;2022-09-17T02:13:43;2.00;;;1.23;;
60478;SDS011;46321;48.398;11.754;2022-09-17T02:16:18;1.75;;;1.25;;
60478;SDS011;46321;48.398;11.754;2022-09-17T02:18:48;4.00;;;1.30;;
60478;SDS011;46321;48.398;11.754;2022-09-17T02:26:36;1.98;;;1.30;;
60478;SDS011;46321;48.398;11.754;2022-09-17T02:29:08;2.33;;;1.40;;
60478;SDS011;46321;48.398;11.754;2022-09-17T02:31:50;3.20;;;1.38;;
60478;SDS011;46321;48.398;11.754;2022-09-17T02:34:15;2.38;;;1.30;;
60478;SDS011;46321;48.398;11.754;2022-09-17T02:36:40;2.65;;;1.50;;
60478;SDS011;46321;48.398;11.754;2022-09-17T02:39:07;3.80;;;1.38;;
60478;SDS011;46321;48.398;11.754;2022-09-17T02:44:25;2.58;;;1.63;;
60478;SDS011;46321;48.398;11.754;2022-09-17T02:49:59;3.13;;;1.70;;
60478;SDS011;46321;48.398;11.754;2022-09-17T02:58:25;2.88;;;2.00;;
60478;SDS011;46321;48.398;11.754;2022-09-17T03:00:56;3.30;;;2.60;;
60478;SDS011;46321;48.398;11.754;2022-09-17T03:03:29;4.68;;;2.58;;
60478;SDS011;46321;48.398;11.754;2022-09-17T03:05:57;3.22;;;2.20;;
60478;SDS011;46321;48.398;11.754;2022-09-17T03:08:37;3.47;;;2.20;;
60478;SDS011;46321;48.398;11.754;2022-09-17T03:11:05;5.35;;;2.70;;
60478;SDS011;46321;48.398;11.754;2022-09-17T03:13:33;3.97;;;3.00;;
60478;SDS011;46321;48.398;11.754;2022-09-17T03:15:59;5.18;;;2.85;;
60478;SDS011;46321;48.398;11.754;2022-09-17T03:18:25;5.15;;;2.67;;
60478;SDS011;46321;48.398;11.754;2022-09-17T03:20:50;5.07;;;3.00;;
60478;SDS011;46321;48.398;11.754;2022-09-17T03:23:15;4.28;;;2.97;;
60478;SDS011;46321;48.398;11.754;2022-09-17T03:25:41;4.57;;;2.75;;
60478;SDS011;46321;48.398;11.754;2022-09-17T03:28:06;5.05;;;2.63;;
60478;SDS011;46321;48.398;11.754;2022-09-17T03:30:32;5.60;;;2.90;;
60478;SDS011;46321;48.398;11.754;2022-09-17T03:32:57;4.38;;;2.85;;
60478;SDS011;46321;48.398;11.754;2022-09-17T03:35:22;4.57;;;2.80;;
60478;SDS011;46321;48.398;11.754;2022-09-17T03:37:48;5.00;;;2.97;;
60478;SDS011;46321;48.398;11.754;2022-09-17T03:40:13;4.95;;;3.13;;
60478;SDS011;46321;48.398;11.754;2022-09-17T03:42:38;4.15;;;2.97;;
60478;SDS011;46321;48.398;11.754;2022-09-17T03:45:04;5.00;;;2.90;;
60478;SDS011;46321;48.398;11.754;2022-09-17T03:47:29;4.10;;;3.10;;
60478;SDS011;46321;48.398;11.754;2022-09-17T03:49:54;4.57;;;2.65;;
60478;SDS011;46321;48.398;11.754;2022-09-17T03:52:20;6.00;;;2.72;;
60478;SDS011;46321;48.398;11.754;2022-09-17T03:54:45;4.75;;;2.95;;
60478;SDS011;46321;48.398;11.754;2022-09-17T03:57:11;4.80;;;3.00;;
60478;SDS011;46321;48.398;11.754;2022-09-17T03:59:36;4.00;;;2.90;;
60478;SDS011;46321;48.398;11.754;2022-09-17T04:02:02;6.65;;;3.00;;
60478;SDS011;46321;48.398;11.754;2022-09-17T04:04:27;4.38;;;2.75;;
60478;SDS011;46321;48.398;11.754;2022-09-17T04:06:52;3.17;;;2.45;;
60478;SDS011;46321;48.398;11.754;2022-09-17T04:09:18;5.68;;;2.90;;
60478;SDS011;46321;48.398;11.754;2022-09-17T04:11:43;4.55;;;2.80;;
60478;SDS011;46321;48.398;11.754;2022-09-17T04:14:09;4.72;;;2.83;;
60478;SDS011;46321;48.398;11.754;2022-09-17T04:16:34;5.22;;;2.78;;
60478;SDS011;46321;48.398;11.754;2022-09-17T04:18:59;3.85;;;2.70;;
60478;SDS011;46321;48.398;11.754;2022-09-17T04:21:24;5.10;;;2.80;;
60478;SDS011;46321;48.398;11.754;2022-09-17T04:23:50;6.63;;;2.63;;
60478;SDS011;46321;48.398;11.754;2022-09-17T04:26:15;4.03;;;2.78;;
60478;SDS011;46321;48.398;11.754;2022-09-17T04:28:40;5.43;;;2.75;;
60478;SDS011;46321;48.398;11.754;2022-09-17T04:31:05;3.45;;;2.47;;
60478;SDS011;46321;48.398;11.754;2022-09-17T04:33:31;4.53;;;2.72;;
60478;SDS011;46321;48.398;11.754;2022-09-17T04:35:56;5.05;;;2.53;;
60478;SDS011;46321;48.398;11.754;2022-09-17T04:38:21;5.35;;;2.53;;
60478;SDS011;46321;48.398;11.754;2022-09-17T04:40:47;7.43;;;3.35;;
60478;SDS011;46321;48.398;11.754;2022-09-17T04:43:12;5.20;;;2.72;;
60478;SDS011;46321;48.398;11.754;2022-09-17T04:45:38;3.75;;;2.97;;
60478;SDS011;46321;48.398;11.754;2022-09-17T04:48:03;4.28;;;2.63;;
60478;SDS011;46321;48.398;11.754;2022-09-17T04:50:29;6.75;;;2.95;;
60478;SDS011;46321;48.398;11.754;2022-09-17T04:52:54;4.18;;;2.53;;
60478;SDS011;46321;48.398;11.754;2022-09-17T04:55:19;4.47;;;2.58;;
60478;SDS011;46321;48.398;11.754;2022-09-17T04:57:46;4.18;;;2.50;;
60478;SDS011;46321;48.398;11.754;2022-09-17T05:00:15;4.75;;;2.58;;
60478;SDS011;46321;48.398;11.754;2022-09-17T05:02:43;4.10;;;2.50;;
60478;SDS011;46321;48.398;11.754;2022-09-17T05:05:10;4.93;;;2.67;;
60478;SDS011;46321;48.398;11.754;2022-09-17T05:07:38;4.32;;;2.40;;
60478;SDS011;46321;48.398;11.754;2022-09-17T05:10:04;3.38;;;2.50;;
60478;SDS011;46321;48.398;11.754;2022-09-17T05:12:30;3.33;;;2.50;;
60478;SDS011;46321;48.398;11.754;2022-09-17T05:14:55;4.05;;;2.90;;
60478;SDS011;46321;48.398;11.754;2022-09-17T05:17:21;5.50;;;2.63;;
60478;SDS011;46321;48.398;11.754;2022-09-17T05:19:46;6.68;;;2.70;;
60478;SDS011;46321;48.398;11.754;2022-09-17T05:22:11;3.88;;;2.90;;
60478;SDS011;46321;48.398;11.754;2022-09-17T05:24:36;4.00;;;2.63;;
60478;SDS011;46321;48.398;11.754;2022-09-17T05:27:03;7.40;;;2.95;;
60478;SDS011;46321;48.398;11.754;2022-09-17T05:29:30;3.72;;;2.53;;
60478;SDS011;46321;48.398;11.754;2022-09-17T05:31:55;4.28;;;3.10;;
60478;SDS011;46321;48.398;11.754;2022-09-17T05:34:20;9.85;;;4.38;;
60478;SDS011;46321;48.398;11.754;2022-09-17T05:36:46;10.13;;;5.03;;
60478;SDS011;46321;48.398;11.754;2022-09-17T05:39:11;4.65;;;3.15;;
60478;SDS011;46321;48.398;11.754;2022-09-17T05:41:36;5.15;;;2.80;;
60478;SDS011;46321;48.398;11.754;2022-09-17T05:44:02;8.13;;;2.55;;
60478;SDS011;46321;48.398;11.754;2022-09-17T05:46:27;4.70;;;3.20;;
60478;SDS011;46321;48.398;11.754;2022-09-17T05:48:54;7.72;;;2.58;;
60478;SDS011;46321;48.398;11.754;2022-09-17T05:51:20;7.30;;;2.75;;
60478;SDS011;46321;48.398;11.754;2022-09-17T05:53:45;5.15;;;2.67;;
60478;SDS011;46321;48.398;11.754;2022-09-17T05:56:11;3.80;;;2.47;;
60478;SDS011;46321;48.398;11.754;2022-09-17T05:58:36;5.18;;;2.40;;
60478;SDS011;46321;48.398;11.754;2022-09-17T06:01:02;4.70;;;2.90;;
60478;SDS011;46321;48.398;11.754;2022-09-17T06:03:27;3.67;;;2.45;;
60478;SDS011;46321;48.398;11.754;2022-09-17T06:05:53;6.88;;;2.67;;
60478;SDS011;46321;48.398;11.754;2022-09-17T06:08:20;4.18;;;2.22;;
60478;SDS011;46321;48.398;11.754;2022-09-17T06:10:46;4.72;;;2.78;;
60478;SDS011;46321;48.398;11.754;2022-09-17T06:13:11;2.97;;;2.22;;
60478;SDS011;46321;48.398;11.754;2022-09-17T06:15:36;4.03;;;2.70;;
60478;SDS011;46321;48.398;11.754;2022-09-17T06:18:02;3.15;;;2.50;;
60478;SDS011;46321;48.398;11.754;2022-09-17T06:20:27;4.20;;;2.38;;
60478;SDS011;46321;48.398;11.754;2022-09-17T06:22:56;3.75;;;2.75;;
60478;SDS011;46321;48.398;11.754;2022-09-17T06:25:22;4.72;;;3.05;;
60478;SDS011;46321;48.398;11.754;2022-09-17T06:27:47;5.53;;;2.72;;
60478;SDS011;46321;48.398;11.754;2022-09-17T06:30:13;4.45;;;2.65;;
60478;SDS011;46321;48.398;11.754;2022-09-17T06:32:38;3.40;;;2.10;;
60478;SDS011;46321;48.398;11.754;2022-09-17T06:35:03;5.35;;;3.70;;
60478;SDS011;46321;48.398;11.754;2022-09-17T06:37:30;4.85;;;3.05;;
60478;SDS011;46321;48.398;11.754;2022-09-17T06:39:56;15.43;;;2.97;;
60478;SDS011;46321;48.398;11.754;2022-09-17T06:42:23;3.50;;;2.42;;
60478;SDS011;46321;48.398;11.754;2022-09-17T06:44:48;4.55;;;2.42;;
60478;SDS011;46321;48.398;11.754;2022-09-17T06:47:14;4.50;;;2.05;;
60478;SDS011;46321;48.398;11.754;2022-09-17T06:49:39;6.25;;;1.95;;
60478;SDS011;46321;48.398;11.754;2022-09-17T06:52:04;5.85;;;2.20;;
60478;SDS011;46321;48.398;11.754;2022-09-17T06:54:29;6.53;;;2.47;;
60478;SDS011;46321;48.398;11.754;2022-09-17T06:56:55;3.97;;;1.98;;
60478;SDS011;46321;48.398;11.754;2022-09-17T06:59:20;4.78;;;2.17;;
60478;SDS011;46321;48.398;11.754;2022-09-17T07:01:46;3.38;;;2.10;;
60478;SDS011;46321;48.398;11.754;2022-09-17T07:04:11;5.05;;;2.35;;
60478;SDS011;46321;48.398;11.754;2022-09-17T07:06:37;3.22;;;2.10;;
60478;SDS011;46321;48.398;11.754;2022-09-17T07:09:03;4.32;;;2.13;;
60478;SDS011;46321;48.398;11.754;2022-09-17T07:11:29;3.13;;;2.03;;
60478;SDS011;46321;48.398;11.754;2022-09-17T07:13:55;4.35;;;1.90;;
60478;SDS011;46321;48.398;11.754;2022-09-17T07:16:21;6.13;;;1.92;;
60478;SDS011;46321;48.398;11.754;2022-09-17T07:18:48;4.07;;;2.30;;
60478;SDS011;46321;48.398;11.754;2022-09-17T07:21:13;6.60;;;2.05;;
60478;SDS011;46321;48.398;11.754;2022-09-17T07:23:38;2.40;;;1.90;;
60478;SDS011;46321;48.398;11.754;2022-09-17T07:26:05;6.03;;;3.28;;
60478;SDS011;46321;48.398;11.754;2022-09-17T07:28:32;6.53;;;2.75;;
60478;SDS011;46321;48.398;11.754;2022-09-17T07:31:01;4.93;;;1.63;;
60478;SDS011;46321;48.398;11.754;2022-09-17T07:33:28;8.00;;;2.55;;
60478;SDS011;46321;48.398;11.754;2022-09-17T07:35:57;4.22;;;1.48;;
60478;SDS011;46321;48.398;11.754;2022-09-17T07:38:24;3.05;;;1.48;;
60478;SDS011;46321;48.398;11.754;2022-09-17T07:43:23;1.77;;;1.35;;
60478;SDS011;46321;48.398;11.754;2022-09-17T07:45:50;5.45;;;1.90;;
60478;SDS011;46321;48.398;11.754;2022-09-17T07:48:16;4.45;;;1.58;;
60478;SDS011;46321;48.398;11.754;2022-09-17T07:50:42;4.80;;;1.48;;
60478;SDS011;46321;48.398;11.754;2022-09-17T07:53:07;5.57;;;1.55;;
60478;SDS011;46321;48.398;11.754;2022-09-17T07:55:32;1.27;;;1.10;;
60478;SDS011;46321;48.398;11.754;2022-09-17T07:57:57;3.90;;;1.40;;
60478;SDS011;46321;48.398;11.754;2022-09-17T08:00:23;4.33;;;1.13;;
60478;SDS011;46321;48.398;11.754;2022-09-17T08:02:54;3.17;;;1.30;;
60478;SDS011;46321;48.398;11.754;2022-09-17T08:05:21;4.18;;;1.20;;
60478;SDS011;46321;48.398;11.754;2022-09-17T08:07:50;3.95;;;1.20;;
60478;SDS011;46321;48.398;11.754;2022-09-17T08:10:16;6.05;;;1.20;;
60478;SDS011;46321;48.398;11.754;2022-09-17T08:12:45;3.05;;;1.20;;
60478;SDS011;46321;48.398;11.754;2022-09-17T08:15:15;1.92;;;1.23;;
60478;SDS011;46321;48.398;11.754;2022-09-17T08:17:47;2.13;;;1.00;;
60478;SDS011;46321;48.398;11.754;2022-09-17T08:20:13;3.00;;;1.30;;
60478;SDS011;46321;48.398;11.754;2022-09-17T08:22:40;3.58;;;1.02;;
60478;SDS011;46321;48.398;11.754;2022-09-17T08:25:06;3.97;;;0.90;;
60478;SDS011;46321;48.398;11.754;2022-09-17T08:27:32;2.92;;;1.20;;
60478;SDS011;46321;48.398;11.754;2022-09-17T08:29:58;2.33;;;1.15;;
60478;SDS011;46321;48.398;11.754;2022-09-17T08:32:23;6.60;;;1.42;;
60478;SDS011;46321;48.398;11.754;2022-09-17T08:34:49;2.65;;;1.15;;
60478;SDS011;46321;48.398;11.754;2022-09-17T08:37:14;3.28;;;0.93;;
60478;SDS011;46321;48.398;11.754;2022-09-17T08:39:40;2.50;;;1.33;;
60478;SDS011;46321;48.398;11.754;2022-09-17T08:42:10;18.67;;;9.48;;
60478;SDS011;46321;48.398;11.754;2022-09-17T08:44:45;5.60;;;3.22;;
60478;SDS011;46321;48.398;11.754;2022-09-17T08:47:33;1.65;;;1.10;;
60478;SDS011;46321;48.398;11.754;2022-09-17T08:50:00;5.35;;;1.67;;
60478;SDS011;46321;48.398;11.754;2022-09-17T08:55:38;2.95;;;1.20;;
60478;SDS011;46321;48.398;11.754;2022-09-17T08:58:19;5.13;;;1.23;;
60478;SDS011;46321;48.398;11.754;2022-09-17T09:01:04;2.35;;;1.48;;
60478;SDS011;46321;48.398;11.754;2022-09-17T09:03:37;3.00;;;1.40;;
60478;SDS011;46321;48.398;11.754;2022-09-17T09:06:36;4.30;;;1.65;;
60478;SDS011;46321;48.398;11.754;2022-09-17T09:09:19;1.83;;;1.00;;
60478;SDS011;46321;48.398;11.754;2022-09-17T09:11:48;1.20;;;0.60;;
60478;SDS011;46321;48.398;11.754;2022-09-17T09:14:24;1.40;;;0.73;;
60478;SDS011;46321;48.398;11.754;2022-09-17T09:16:54;0.70;;;0.50;;
60478;SDS011;46321;48.398;11.754;2022-09-17T09:19:24;1.58;;;0.75;;
60478;SDS011;46321;48.398;11.754;2022-09-17T09:25:04;0.98;;;0.50;;
60478;SDS011;46321;48.398;11.754;2022-09-17T09:30:49;2.17;;;0.70;;
60478;SDS011;46321;48.398;11.754;2022-09-17T09:33:25;0.60;;;0.55;;
60478;SDS011;46321;48.398;11.754;2022-09-17T09:35:54;0.90;;;0.63;;
60478;SDS011;46321;48.398;11.754;2022-09-17T09:43:38;1.02;;;0.60;;
60478;SDS011;46321;48.398;11.754;2022-09-17T09:57:14;1.95;;;0.60;;
60478;SDS011;46321;48.398;11.754;2022-09-17T10:02:09;2.03;;;0.63;;
60478;SDS011;46321;48.398;11.754;2022-09-17T10:04:35;1.10;;;0.70;;
60478;SDS011;46321;48.398;11.754;2022-09-17T10:07:07;0.90;;;0.60;;
60478;SDS011;46321;48.398;11.754;2022-09-17T10:09:35;2.10;;;0.82;;
60478;SDS011;46321;48.398;11.754;2022-09-17T10:14:35;0.88;;;0.60;;
60478;SDS011;46321;48.398;11.754;2022-09-17T10:17:23;1.60;;;0.90;;
60478;SDS011;46321;48.398;11.754;2022-09-17T10:22:29;2.10;;;0.95;;
60478;SDS011;46321;48.398;11.754;2022-09-17T10:24:58;2.45;;;0.70;;
60478;SDS011;46321;48.398;11.754;2022-09-17T10:27:24;0.90;;;0.80;;
60478;SDS011;46321;48.398;11.754;2022-09-17T10:32:32;1.88;;;0.90;;
60478;SDS011;46321;48.398;11.754;2022-09-17T10:34:59;2.55;;;1.00;;
60478;SDS011;46321;48.398;11.754;2022-09-17T10:38:01;1.58;;;0.90;;
60478;SDS011;46321;48.398;11.754;2022-09-17T10:42:45;0.97;;;0.80;;
60478;SDS011;46321;48.398;11.754;2022-09-17T10:47:54;2.15;;;1.17;;
60478;SDS011;46321;48.398;11.754;2022-09-17T10:50:26;2.35;;;1.00;;
60478;SDS011;46321;48.398;11.754;2022-09-17T10:52:54;1.43;;;1.03;;
60478;SDS011;46321;48.398;11.754;2022-09-17T10:58:34;2.05;;;1.30;;
60478;SDS011;46321;48.398;11.754;2022-09-17T11:04:05;2.42;;;1.10;;
60478;SDS011;46321;48.398;11.754;2022-09-17T11:12:39;3.72;;;1.30;;
60478;SDS011;46321;48.398;11.754;2022-09-17T11:15:36;1.80;;;1.17;;
60478;SDS011;46321;48.398;11.754;2022-09-17T11:29:03;1.73;;;1.23;;
60478;SDS011;46321;48.398;11.754;2022-09-17T11:34:34;2.65;;;1.25;;
60478;SDS011;46321;48.398;11.754;2022-09-17T11:37:10;2.03;;;0.93;;
60478;SDS011;46321;48.398;11.754;2022-09-17T11:39:52;2.63;;;1.20;;
60478;SDS011;46321;48.398;11.754;2022-09-17T11:42:22;2.85;;;1.23;;
60478;SDS011;46321;48.398;11.754;2022-09-17T11:47:18;2.70;;;1.13;;
60478;SDS011;46321;48.398;11.754;2022-09-17T11:49:56;2.47;;;1.02;;
60478;SDS011;46321;48.398;11.754;2022-09-17T11:52:23;4.35;;;1.10;;
60478;SDS011;46321;48.398;11.754;2022-09-17T11:55:07;5.45;;;1.30;;
60478;SDS011;46321;48.398;11.754;2022-09-17T11:57:43;3.58;;;1.17;;
60478;SDS011;46321;48.398;11.754;2022-09-17T12:00:14;1.80;;;1.13;;
60478;SDS011;46321;48.398;11.754;2022-09-17T12:05:30;4.07;;;1.30;;
60478;SDS011;46321;48.398;11.754;2022-09-17T12:08:08;2.10;;;1.10;;
60478;SDS011;46321;48.398;11.754;2022-09-17T12:16:15;5.90;;;1.10;;
60478;SDS011;46321;48.398;11.754;2022-09-17T12:18:54;3.38;;;1.20;;
60478;SDS011;46321;48.398;11.754;2022-09-17T12:21:26;3.80;;;1.00;;
60478;SDS011;46321;48.398;11.754;2022-09-17T12:24:26;3.65;;;1.10;;
60478;SDS011;46321;48.398;11.754;2022-09-17T12:27:09;3.83;;;0.98;;
60478;SDS011;46321;48.398;11.754;2022-09-17T12:32:41;2.70;;;1.00;;
60478;SDS011;46321;48.398;11.754;2022-09-17T12:38:14;3.47;;;1.00;;
60478;SDS011;46321;48.398;11.754;2022-09-17T12:46:41;2.13;;;0.70;;
60478;SDS011;46321;48.398;11.754;2022-09-17T12:49:26;3.78;;;0.95;;
60478;SDS011;46321;48.398;11.754;2022-09-17T12:51:56;3.83;;;1.20;;
60478;SDS011;46321;48.398;11.754;2022-09-17T12:57:16;1.48;;;1.05;;
60478;SDS011;46321;48.398;11.754;2022-09-17T12:59:55;2.28;;;1.33;;
60478;SDS011;46321;48.398;11.754;2022-09-17T13:02:34;2.10;;;1.20;;
60478;SDS011;46321;48.398;11.754;2022-09-17T13:11:41;2.35;;;1.30;;
60478;SDS011;46321;48.398;11.754;2022-09-17T13:16:40;2.83;;;1.33;;
60478;SDS011;46321;48.398;11.754;2022-09-17T13:19:22;2.80;;;1.50;;
60478;SDS011;46321;48.398;11.754;2022-09-17T13:21:59;5.35;;;1.50;;
60478;SDS011;46321;48.398;11.754;2022-09-17T13:24:28;2.15;;;1.30;;
60478;SDS011;46321;48.398;11.754;2022-09-17T13:26:55;3.08;;;1.30;;
60478;SDS011;46321;48.398;11.754;2022-09-17T13:32:25;2.67;;;1.10;;
60478;SDS011;46321;48.398;11.754;2022-09-17T13:40:30;1.77;;;1.20;;
60478;SDS011;46321;48.398;11.754;2022-09-17T13:42:56;3.55;;;1.17;;
60478;SDS011;46321;48.398;11.754;2022-09-17T13:45:33;3.28;;;1.15;;
60478;SDS011;46321;48.398;11.754;2022-09-17T13:48:19;3.78;;;1.27;;
60478;SDS011;46321;48.398;11.754;2022-09-17T13:50:48;2.88;;;1.10;;
60478;SDS011;46321;48.398;11.754;2022-09-17T14:00:49;5.30;;;1.47;;
60478;SDS011;46321;48.398;11.754;2022-09-17T14:13:50;2.93;;;1.37;;
60478;SDS011;46321;48.398;11.754;2022-09-17T14:24:33;3.47;;;1.08;;
60478;SDS011;46321;48.398;11.754;2022-09-17T14:35:42;2.97;;;1.42;;
60478;SDS011;46321;48.398;11.754;2022-09-17T14:41:28;2.85;;;1.10;;
60478;SDS011;46321;48.398;11.754;2022-09-17T14:44:03;4.43;;;1.40;;
60478;SDS011;46321;48.398;11.754;2022-09-17T14:46:34;4.28;;;1.05;;
60478;SDS011;46321;48.398;11.754;2022-09-17T14:49:21;4.90;;;1.40;;
60478;SDS011;46321;48.398;11.754;2022-09-17T14:51:49;2.63;;;1.40;;
60478;SDS011;46321;48.398;11.754;2022-09-17T14:54:21;2.75;;;1.10;;
60478;SDS011;46321;48.398;11.754;2022-09-17T14:56:51;4.38;;;1.10;;
60478;SDS011;46321;48.398;11.754;2022-09-17T14:59:30;1.77;;;0.95;;
60478;SDS011;46321;48.398;11.754;2022-09-17T15:02:19;4.18;;;1.00;;
60478;SDS011;46321;48.398;11.754;2022-09-17T15:04:48;1.08;;;0.98;;
60478;SDS011;46321;48.398;11.754;2022-09-17T15:07:13;0.98;;;0.70;;
60478;SDS011;46321;48.398;11.754;2022-09-17T15:09:38;1.48;;;0.70;;
60478;SDS011;46321;48.398;11.754;2022-09-17T15:12:04;0.90;;;0.50;;
60478;SDS011;46321;48.398;11.754;2022-09-17T15:14:33;0.60;;;0.50;;
60478;SDS011;46321;48.398;11.754;2022-09-17T15:17:02;1.27;;;0.70;;
60478;SDS011;46321;48.398;11.754;2022-09-17T15:19:29;0.90;;;0.50;;
60478;SDS011;46321;48.398;11.754;2022-09-17T15:22:02;1.08;;;0.70;;
60478;SDS011;46321;48.398;11.754;2022-09-17T15:27:39;5.70;;;1.10;;
60478;SDS011;46321;48.398;11.754;2022-09-17T15:30:14;1.60;;;0.60;;
60478;SDS011;46321;48.398;11.754;2022-09-17T15:32:49;1.77;;;0.90;;
60478;SDS011;46321;48.398;11.754;2022-09-17T15:35:28;1.15;;;0.80;;
60478;SDS011;46321;48.398;11.754;2022-09-17T15:37:56;1.55;;;0.98;;
60478;SDS011;46321;48.398;11.754;2022-09-17T15:40:27;1.85;;;0.93;;
60478;SDS011;46321;48.398;11.754;2022-09-17T15:43:20;3.80;;;1.10;;
60478;SDS011;46321;48.398;11.754;2022-09-17T15:46:03;2.22;;;0.98;;
60478;SDS011;46321;48.398;11.754;2022-09-17T15:48:53;2.25;;;1.10;;
60478;SDS011;46321;48.398;11.754;2022-09-17T15:51:26;1.98;;;0.93;;
60478;SDS011;46321;48.398;11.754;2022-09-17T15:53:57;3.33;;;1.35;;
60478;SDS011;46321;48.398;11.754;2022-09-17T15:56:29;3.13;;;1.40;;
60478;SDS011;46321;48.398;11.754;2022-09-17T15:59:00;1.73;;;1.10;;
60478;SDS011;46321;48.398;11.754;2022-09-17T16:08:51;1.00;;;0.80;;
60478;SDS011;46321;48.398;11.754;2022-09-17T16:11:18;1.10;;;0.73;;
60478;SDS011;46321;48.398;11.754;2022-09-17T16:13:44;1.42;;;0.80;;
60478;SDS011;46321;48.398;11.754;2022-09-17T16:16:14;3.55;;;0.82;;
60478;SDS011;46321;48.398;11.754;2022-09-17T16:18:42;1.50;;;0.85;;
60478;SDS011;46321;48.398;11.754;2022-09-17T16:21:10;1.83;;;0.90;;
60478;SDS011;46321;48.398;11.754;2022-09-17T16:23:39;2.03;;;0.70;;
60478;SDS011;46321;48.398;11.754;2022-09-17T16:26:05;1.73;;;0.85;;
60478;SDS011;46321;48.398;11.754;2022-09-17T16:28:36;1.48;;;0.85;;
60478;SDS011;46321;48.398;11.754;2022-09-17T16:31:02;1.63;;;0.73;;
60478;SDS011;46321;48.398;11.754;2022-09-17T16:33:29;1.25;;;0.65;;
60478;SDS011;46321;48.398;11.754;2022-09-17T16:35:58;1.25;;;0.70;;
60478;SDS011;46321;48.398;11.754;2022-09-17T16:38:23;0.63;;;0.50;;
60478;SDS011;46321;48.398;11.754;2022-09-17T16:40:50;1.95;;;0.55;;
60478;SDS011;46321;48.398;11.754;2022-09-17T16:43:16;0.50;;;0.50;;
60478;SDS011;46321;48.398;11.754;2022-09-17T16:45:42;1.73;;;0.70;;
60478;SDS011;46321;48.398;11.754;2022-09-17T16:48:08;0.65;;;0.50;;
60478;SDS011;46321;48.398;11.754;2022-09-17T16:50:34;0.90;;;0.70;;
60478;SDS011;46321;48.398;11.754;2022-09-17T16:53:03;2.65;;;0.80;;
60478;SDS011;46321;48.398;11.754;2022-09-17T16:55:29;1.70;;;0.57;;
60478;SDS011;46321;48.398;11.754;2022-09-17T16:57:55;2.95;;;0.60;;
60478;SDS011;46321;48.398;11.754;2022-09-17T17:00:22;2.22;;;0.60;;
60478;SDS011;46321;48.398;11.754;2022-09-17T17:02:52;1.35;;;0.60;;
60478;SDS011;46321;48.398;11.754;2022-09-17T17:05:22;1.23;;;0.60;;
60478;SDS011;46321;48.398;11.754;2022-09-17T17:07:48;4.20;;;0.90;;
60478;SDS011;46321;48.398;11.754;2022-09-17T17:10:14;0.95;;;0.65;;
60478;SDS011;46321;48.398;11.754;2022-09-17T17:12:40;2.40;;;0.63;;
60478;SDS011;46321;48.398;11.754;2022-09-17T17:15:05;1.30;;;0.70;;
60478;SDS011;46321;48.398;11.754;2022-09-17T17:17:33;1.55;;;0.52;;
60478;SDS011;46321;48.398;11.754;2022-09-17T17:19:59;6.50;;;3.60;;
60478;SDS011;46321;48.398;11.754;2022-09-17T17:22:25;1.13;;;0.77;;
60478;SDS011;46321;48.398;11.754;2022-09-17T17:24:51;2.40;;;0.70;;
60478;SDS011;46321;48.398;11.754;2022-09-17T17:27:16;1.70;;;0.80;;
60478;SDS011;46321;48.398;11.754;2022-09-17T17:29:41;2.13;;;0.60;;
60478;SDS011;46321;48.398;11.754;2022-09-17T17:32:06;1.02;;;0.70;;
60478;SDS011;46321;48.398;11.754;2022-09-17T17:34:32;2.28;;;0.52;;
60478;SDS011;46321;48.398;11.754;2022-09-17T17:36:57;1.33;;;0.70;;
60478;SDS011;46321;48.398;11.754;2022-09-17T17:39:23;4.68;;;0.70;;
60478;SDS011;46321;48.398;11.754;2022-09-17T17:41:48;1.52;;;0.93;;
60478;SDS011;46321;48.398;11.754;2022-09-17T17:44:13;0.98;;;0.80;;
60478;SDS011;46321;48.398;11.754;2022-09-17T17:46:39;1.10;;;0.80;;
60478;SDS011;46321;48.398;11.754;2022-09-17T17:49:05;0.80;;;0.65;;
60478;SDS011;46321;48.398;11.754;2022-09-17T17:51:31;1.50;;;0.80;;
60478;SDS011;46321;48.398;11.754;2022-09-17T17:53:57;1.85;;;0.90;;
60478;SDS011;46321;48.398;11.754;2022-09-17T17:56:23;4.93;;;2.30;;
60478;SDS011;46321;48.398;11.754;2022-09-17T17:58:52;2.20;;;1.65;;
60478;SDS011;46321;48.398;11.754;2022-09-17T18:01:20;3.45;;;1.40;;
60478;SDS011;46321;48.398;11.754;2022-09-17T18:03:47;4.30;;;1.30;;
60478;SDS011;46321;48.398;11.754;2022-09-17T18:06:13;1.10;;;0.80;;